Time;durP1;ratioP1;P1;durP2;ratioP2;P2;SDS_P1;SDS_P2;PMS_P1;PMS_P2;Temp;Humidity;BMP_temperature;BMP_pressure;BME280_temperature;BME280_humidity;BME280_pressure;Samples;Min_cycle;Max_cycle;Signal;HPM_P1;HPM_P2
2021/10/17 00:04:14;;;;;;;13.77;5.80;;;;;;;8.63;91.30;101176.67;4751271;62;1138986;-89
2021/10/17 00:09:20;;;;;;;16.37;5.53;;;;;;;8.60;91.42;101180.80;4751430;62;1139029;-86
2021/10/17 00:14:25;;;;;;;14.20;5.93;;;;;;;8.57;91.77;101175.70;4750829;62;1138895;-85
2021/10/17 00:19:32;;;;;;;11.47;5.60;;;;;;;8.57;91.68;101177.02;4735247;61;1139196;-86
2021/10/17 00:24:37;;;;;;;15.50;6.77;;;;;;;8.56;91.82;101176.64;4714543;62;1139046;-86
2021/10/17 00:29:43;;;;;;;24.47;6.47;;;;;;;8.58;91.95;101176.55;4607041;62;1139223;-86
2021/10/17 00:34:49;;;;;;;15.77;5.47;;;;;;;8.57;92.00;101178.34;4598586;62;1139038;-87
2021/10/17 00:39:56;;;;;;;11.80;5.10;;;;;;;8.55;92.17;101168.85;4598753;63;1138888;-85
2021/10/17 00:45:07;;;;;;;15.53;5.77;;;;;;;8.54;92.35;101164.52;4599048;63;1139302;-86
2021/10/17 00:50:13;;;;;;;19.97;6.80;;;;;;;8.54;92.47;101165.84;4598853;63;1139001;-85
2021/10/17 00:55:22;;;;;;;15.67;5.93;;;;;;;8.55;92.51;101160.94;4599031;63;1139107;-86
2021/10/17 01:00:28;;;;;;;10.10;4.70;;;;;;;8.59;92.42;101155.37;4599022;63;1138975;-86
2021/10/17 01:05:35;;;;;;;12.70;5.17;;;;;;;8.63;92.53;101142.87;4599110;62;1139087;-85
2021/10/17 01:10:42;;;;;;;14.13;5.93;;;;;;;8.62;92.44;101147.29;4599092;63;1138921;-86
2021/10/17 01:15:55;;;;;;;12.20;4.80;;;;;;;8.65;92.41;101140.52;4590359;63;1138869;-86
2021/10/17 01:21:03;;;;;;;13.88;4.55;;;;;;;8.68;92.30;101132.91;4621342;61;1139239;-85
2021/10/17 01:26:12;;;;;;;11.17;5.33;;;;;;;8.65;92.55;101135.72;4660911;62;1139082;-86
2021/10/17 01:31:18;;;;;;;15.93;5.60;;;;;;;8.60;92.41;101138.62;4753454;62;1138962;-86
2021/10/17 01:36:23;;;;;;;10.90;5.13;;;;;;;8.60;92.54;101139.09;4752891;62;1139187;-85
2021/10/17 01:41:29;;;;;;;11.10;4.27;;;;;;;8.57;92.73;101133.98;4752690;62;1139263;-85
2021/10/17 01:46:37;;;;;;;11.00;4.63;;;;;;;8.56;92.80;101125.70;4752566;61;1139134;-86
2021/10/17 01:51:43;;;;;;;12.03;5.40;;;;;;;8.55;92.88;101133.26;4752525;62;1139019;-85
2021/10/17 01:56:49;;;;;;;14.78;5.40;;;;;;;8.53;93.06;101137.77;4752460;62;1139071;-85
2021/10/17 02:01:56;;;;;;;10.90;5.33;;;;;;;8.53;93.17;101129.39;4752796;62;1138938;-86
2021/10/17 02:07:02;;;;;;;10.13;4.90;;;;;;;8.50;93.29;101128.25;4752147;62;1138903;-86
2021/10/17 02:12:09;;;;;;;11.93;5.23;;;;;;;8.50;93.56;101121.66;4752101;62;1138972;-86
2021/10/17 02:17:17;;;;;;;13.10;5.40;;;;;;;8.51;93.52;101122.51;4751963;62;1136965;-86
2021/10/17 02:22:23;;;;;;;8.50;3.93;;;;;;;8.55;93.44;101123.56;4707451;62;1137129;-85
2021/10/17 02:27:29;;;;;;;7.33;4.10;;;;;;;8.51;93.81;101118.09;4696495;62;1134842;-86
2021/10/17 02:32:35;;;;;;;7.67;3.90;;;;;;;8.48;93.90;101116.95;4661268;63;1134891;-85
2021/10/17 02:37:47;;;;;;;10.97;4.67;;;;;;;8.46;93.97;101117.50;4660156;63;1135077;-87
2021/10/17 02:42:53;;;;;;;10.93;3.10;;;;;;;8.46;93.87;101120.98;4661351;63;1137031;-86
2021/10/17 02:48:00;;;;;;;9.73;4.17;;;;;;;8.45;93.60;101127.19;4661316;63;1136939;-86
2021/10/17 02:53:07;;;;;;;10.63;4.30;;;;;;;8.45;93.50;101119.28;4621935;63;1135039;-85
2021/10/17 02:58:13;;;;;;;10.63;5.17;;;;;;;8.48;93.69;101112.14;4661589;63;1136945;-86
2021/10/17 03:03:19;;;;;;;12.00;3.37;;;;;;;8.48;93.69;101112.14;4661419;63;1137051;-85
2021/10/17 03:08:25;;;;;;;8.83;3.93;;;;;;;8.48;93.46;101102.44;4661455;63;1136990;-85
2021/10/17 03:13:32;;;;;;;13.83;4.33;;;;;;;8.51;93.17;101110.17;4661428;63;1134924;-85
2021/10/17 03:18:39;;;;;;;6.47;3.57;;;;;;;8.50;93.05;101104.52;4661650;63;1137269;-86
2021/10/17 03:23:46;;;;;;;11.43;3.87;;;;;;;8.49;92.78;101102.83;4615340;63;1134848;-85
2021/10/17 03:28:52;;;;;;;14.20;4.00;;;;;;;8.49;92.74;101092.75;4680566;63;1136890;-86
2021/10/17 03:33:58;;;;;;;8.48;4.00;;;;;;;8.46;92.74;101089.82;4705686;62;1136961;-86
2021/10/17 03:39:05;;;;;;;7.47;3.45;;;;;;;8.48;92.62;101089.27;4705752;63;1132727;-85
2021/10/17 03:44:12;;;;;;;12.93;3.95;;;;;;;8.48;92.56;101092.37;4709238;63;1137062;-86
2021/10/17 03:49:18;;;;;;;10.70;4.27;;;;;;;8.42;92.66;101089.62;4592103;63;1139091;-86
2021/10/17 03:54:26;;;;;;;6.43;3.13;;;;;;;8.42;92.69;101092.25;4648467;62;1138899;-86
2021/10/17 03:59:32;;;;;;;6.17;3.55;;;;;;;8.41;92.73;101096.67;4647896;63;1137088;-86
2021/10/17 04:04:38;;;;;;;8.00;3.30;;;;;;;8.39;92.95;101089.36;4730074;61;1137013;-86
2021/10/17 04:09:44;;;;;;;11.47;4.33;;;;;;;8.41;92.89;101087.92;4730364;61;1136884;-85
2021/10/17 04:14:50;;;;;;;6.83;3.57;;;;;;;8.39;92.82;101088.50;4730765;61;1139210;-86
2021/10/17 04:19:57;;;;;;;15.43;4.07;;;;;;;8.37;92.93;101081.16;4731063;61;1137119;-85
2021/10/17 04:25:03;;;;;;;6.10;3.43;;;;;;;8.38;92.80;101082.86;4755927;60;1139075;-85
2021/10/17 04:30:09;;;;;;;9.30;2.73;;;;;;;8.38;92.71;101086.34;4760935;61;1136897;-85
2021/10/17 04:35:16;;;;;;;7.90;3.93;;;;;;;8.37;92.66;101078.05;4760805;61;1136885;-86
2021/10/17 04:40:23;;;;;;;9.30;3.20;;;;;;;8.40;92.42;101081.80;4760831;61;1137150;-86
2021/10/17 04:45:29;;;;;;;5.30;3.20;;;;;;;8.41;92.38;101080.02;4760843;62;1136893;-86
2021/10/17 04:50:36;;;;;;;10.90;3.70;;;;;;;8.44;92.16;101081.16;4760715;62;1136893;-86
2021/10/17 04:55:42;;;;;;;5.97;2.97;;;;;;;8.48;92.07;101081.36;4760828;62;1139049;-86
2021/10/17 05:00:49;;;;;;;9.17;3.63;;;;;;;8.48;91.76;101089.27;4760863;61;1136939;-86
2021/10/17 05:05:55;;;;;;;11.33;3.33;;;;;;;8.45;91.89;101085.02;4716014;62;1136901;-85
2021/10/17 05:11:01;;;;;;;10.70;3.23;;;;;;;8.47;91.74;101088.88;4761146;61;1138968;-86
2021/10/17 05:16:07;;;;;;;7.97;3.03;;;;;;;8.41;91.18;101083.50;4761260;62;1139062;-86
2021/10/17 05:21:12;;;;;;;10.67;3.33;;;;;;;8.38;91.55;101083.70;4761106;62;1137005;-86
2021/10/17 05:26:18;;;;;;;9.03;2.90;;;;;;;8.38;91.38;101087.66;4760637;61;1138993;-86
2021/10/17 05:31:25;;;;;;;10.27;4.63;;;;;;;8.39;91.19;101091.14;4789495;60;1136886;-86
2021/10/17 05:36:31;;;;;;;12.37;3.10;;;;;;;8.38;91.22;101094.25;4838419;59;1139057;-86
2021/10/17 05:41:38;;;;;;;7.37;3.55;;;;;;;8.40;90.97;101093.66;4838257;60;1138871;-86
2021/10/17 05:46:44;;;;;;;6.37;3.03;;;;;;;8.43;90.79;101102.70;4838467;60;1136884;-85
2021/10/17 05:51:50;;;;;;;12.27;5.63;;;;;;;8.44;90.76;101106.19;4838310;59;1137054;-86
2021/10/17 05:56:56;;;;;;;9.47;4.40;;;;;;;8.40;90.47;101112.61;4838501;60;1139026;-86
2021/10/17 06:02:03;;;;;;;21.25;9.40;;;;;;;8.38;90.34;101110.06;4838232;60;1136895;-86
2021/10/17 06:07:11;;;;;;;5.43;3.23;;;;;;;8.36;90.34;101111.94;4838308;59;1138994;-86
2021/10/17 06:12:16;;;;;;;13.47;2.83;;;;;;;8.36;90.15;101105.81;4838316;60;1136893;-88
2021/10/17 06:17:22;;;;;;;4.80;2.90;;;;;;;8.38;90.28;101097.35;4838410;60;1138993;-87
2021/10/17 06:22:28;;;;;;;7.37;3.50;;;;;;;8.40;90.07;101106.02;4838212;60;1136939;-86
2021/10/17 06:27:34;;;;;;;11.90;4.70;;;;;;;8.38;89.87;101111.84;4732233;60;1136966;-86
2021/10/17 06:32:39;;;;;;;11.20;4.20;;;;;;;8.32;89.57;101113.05;4670908;61;1139042;-90
2021/10/17 06:37:45;;;;;;;9.80;3.53;;;;;;;8.27;89.71;101115.06;4670783;62;1138964;-88
2021/10/17 06:42:52;;;;;;;13.53;5.53;;;;;;;8.24;89.82;101113.09;4670968;61;1137120;-87
2021/10/17 06:48:03;;;;;;;8.53;4.22;;;;;;;8.24;90.02;101115.73;4668596;61;1138924;-88
2021/10/17 06:53:09;;;;;;;15.17;4.73;;;;;;;8.23;90.38;101117.98;4651114;61;1137131;-87
2021/10/17 06:58:15;;;;;;;10.43;5.37;;;;;;;8.23;90.67;101121.47;4671016;61;1136938;-88
2021/10/17 07:03:20;;;;;;;24.97;7.50;;;;;;;8.23;90.87;101124.57;4671337;62;1137130;-86
2021/10/17 07:08:28;;;;;;;14.27;7.17;;;;;;;8.25;91.14;101130.61;4662335;62;1136274;-86
2021/10/17 07:13:34;;;;;;;13.77;6.57;;;;;;;8.27;91.18;101137.92;4671411;63;1136315;-88
2021/10/17 07:18:41;;;;;;;31.20;13.10;;;;;;;8.26;91.61;101136.23;4671503;63;1136867;-86
2021/10/17 07:23:48;;;;;;;15.70;6.03;;;;;;;8.29;91.77;101130.31;4674075;61;1139425;-85
2021/10/17 07:28:54;;;;;;;19.67;9.80;;;;;;;8.30;92.10;101128.06;4759605;60;1137002;-88
2021/10/17 07:34:00;;;;;;;13.43;6.50;;;;;;;8.31;92.33;101125.81;4669564;61;1136996;-84
2021/10/17 07:39:06;;;;;;;7.00;3.80;;;;;;;8.37;92.37;101122.01;4703638;61;1137237;-86
2021/10/17 07:44:16;;;;;;;9.27;5.70;;;;;;;8.40;92.54;101123.97;4747049;61;1134867;-86
2021/10/17 07:49:23;;;;;;;24.67;11.67;;;;;;;8.37;92.61;101122.86;4674218;63;1134836;-86
2021/10/17 07:54:29;;;;;;;17.23;8.43;;;;;;;8.43;92.71;101126.43;4742773;62;1139051;-86
2021/10/17 07:59:35;;;;;;;13.43;5.60;;;;;;;8.45;92.98;101126.34;4747811;62;1136911;-86
2021/10/17 08:04:47;;;;;;;10.57;5.77;;;;;;;8.49;92.91;101127.02;4748872;62;1137165;-86
2021/10/17 08:09:52;;;;;;;25.73;8.40;;;;;;;8.52;92.95;101126.84;4680273;61;1136935;-86
2021/10/17 08:15:00;;;;;;;30.20;11.57;;;;;;;8.52;92.98;101124.20;4679878;62;1134853;-85
2021/10/17 08:20:08;;;;;;;18.03;7.17;;;;;;;8.55;93.13;101125.35;4697280;63;21202;-86
2021/10/17 08:25:14;;;;;;;29.27;10.45;;;;;;;8.57;93.28;101128.25;4684622;62;1134817;-86
2021/10/17 08:30:20;;;;;;;20.10;6.87;;;;;;;8.59;93.12;101127.69;4694669;63;1142465;-86
2021/10/17 08:35:27;;;;;;;20.95;9.85;;;;;;;8.64;93.09;101130.06;4694025;62;1139501;-85
2021/10/17 08:40:33;;;;;;;12.53;6.63;;;;;;;8.65;93.17;101131.30;4694255;63;1139240;-86
2021/10/17 08:45:53;;;;;;;13.37;7.00;;;;;;;8.71;93.30;101136.18;4693781;63;1139147;-91
2021/10/17 08:51:02;;;;;;;22.77;8.87;;;;;;;8.74;93.29;101126.77;4729678;61;1139406;-84
2021/10/17 08:56:12;;;;;;;17.43;6.90;;;;;;;8.78;93.27;101127.44;4758361;61;1138871;-84
2021/10/17 09:01:20;;;;;;;20.00;9.35;;;;;;;8.79;93.17;101126.50;4733469;61;1139146;-85
2021/10/17 09:06:36;;;;;;;16.87;7.30;;;;;;;8.83;93.27;101120.58;4826712;61;1139272;-86
2021/10/17 09:11:50;;;;;;;13.58;7.70;;;;;;;8.91;93.36;101123.11;4827554;61;1139248;-88
2021/10/17 09:16:58;;;;;;;12.50;5.97;;;;;;;8.94;93.20;101124.72;4803437;61;1138845;-89
2021/10/17 09:22:07;;;;;;;11.13;5.57;;;;;;;9.00;93.13;101125.20;4762300;60;1138878;-88
2021/10/17 09:27:19;;;;;;;20.43;9.20;;;;;;;9.05;92.85;101123.11;4766454;61;1139088;-90
2021/10/17 09:32:28;;;;;;;33.90;9.70;;;;;;;9.10;92.93;101125.48;4700293;61;1138978;-91
2021/10/17 09:37:39;;;;;;;11.43;5.50;;;;;;;9.10;92.93;101125.48;4712925;61;1139503;-90
2021/10/17 09:43:20;;;;;;;15.83;8.20;;;;;;;9.15;92.87;101126.91;4670598;63;1139392;-89
2021/10/17 09:48:33;;;;;;;18.82;6.83;;;;;;;9.20;92.86;101131.87;4688019;61;1139132;-90
2021/10/17 09:53:48;;;;;;;21.47;7.93;;;;;;;9.25;92.64;101121.89;4687440;62;1138946;-89
2021/10/17 09:58:54;;;;;;;22.63;7.70;;;;;;;9.25;92.40;101121.04;4641226;62;1136831;-93
2021/10/17 10:04:06;;;;;;;32.17;9.73;;;;;;;9.27;92.29;101114.73;4744738;61;1136895;-89
2021/10/17 10:09:18;;;;;;;15.53;7.23;;;;;;;9.34;92.55;101125.73;4721753;62;1136939;-89
2021/10/17 10:14:24;;;;;;;19.50;6.43;;;;;;;9.38;92.44;101114.89;4702824;61;1137210;-88
2021/10/17 10:19:31;;;;;;;12.10;5.37;;;;;;;9.45;92.03;101110.94;4693661;61;1137362;-89
2021/10/17 10:24:38;;;;;;;12.57;5.90;;;;;;;9.50;91.12;101110.15;4670698;63;1136972;-91
2021/10/17 10:29:43;;;;;;;21.97;6.40;;;;;;;9.55;91.30;101106.38;4737265;61;1137158;-89
2021/10/17 10:34:54;;;;;;;36.23;12.80;;;;;;;9.66;91.12;101111.81;4739803;61;1137143;-89
2021/10/17 10:40:09;;;;;;;11.43;5.00;;;;;;;9.71;88.96;101101.80;4741400;61;1139009;-89
2021/10/17 10:51:41;;;;;;;10.30;4.47;;;;;;;9.81;88.22;101097.13;4575064;63;1139308;-87
2021/10/17 10:56:52;;;;;;;21.50;9.63;;;;;;;9.99;88.16;101101.69;4606230;63;1139004;-85
2021/10/17 11:02:20;;;;;;;13.40;5.40;;;;;;;10.16;86.35;101093.97;4619245;62;1139292;-84
2021/10/17 11:07:43;;;;;;;14.13;6.30;;;;;;;10.20;84.13;101083.13;4616275;63;1141231;-85
2021/10/17 11:12:51;;;;;;;19.87;6.03;;;;;;;10.32;82.36;101076.64;4593097;64;1141166;-85
2021/10/17 11:18:09;;;;;;;31.50;12.17;;;;;;;10.51;82.23;101075.77;4590783;63;1141642;-85
2021/10/17 11:23:25;;;;;;;45.57;15.07;;;;;;;10.81;79.94;101082.06;4592545;63;1143232;-85
2021/10/17 11:28:33;;;;;;;25.23;8.23;;;;;;;11.05;75.70;101073.72;4706253;61;1143168;-85
2021/10/17 11:33:43;;;;;;;7.80;3.72;;;;;;;11.17;74.22;101064.90;4748024;61;1141028;-85
2021/10/17 11:38:53;;;;;;;19.87;7.53;;;;;;;11.27;73.14;101061.98;4759573;60;1139077;-85
2021/10/17 11:44:00;;;;;;;37.90;12.80;;;;;;;11.37;73.33;101060.83;4777003;61;1141093;-85
2021/10/17 11:49:12;;;;;;;41.70;13.87;;;;;;;11.39;72.57;101048.33;4756067;60;1143512;-84
2021/10/17 11:54:14;;;;;;;40.90;16.13;;;;;;;11.57;71.26;101043.49;4679313;61;1141199;-85
2021/10/17 11:59:22;;;;;;;60.43;20.80;;;;;;;11.95;72.97;101041.99;4666377;62;1141122;-85
2021/10/17 12:04:44;;;;;;;18.63;5.97;;;;;;;11.91;69.62;101037.91;4763953;61;1141643;-85
2021/10/17 12:09:49;;;;;;;35.77;13.80;;;;;;;11.65;67.31;101039.78;4762430;61;1138961;-85
2021/10/17 12:15:05;;;;;;;23.23;8.93;;;;;;;11.40;68.37;101042.07;4677793;62;1141376;-88
2021/10/17 12:20:16;;;;;;;10.07;3.23;;;;;;;11.25;69.58;101044.50;4658811;62;1139171;-90
2021/10/17 12:38:06;;;;;;;;;;;;;;;;;;;;;
2021/10/17 12:43:27;;;;;;;;;;;;;;;;;;;;;
2021/10/17 12:49:23;;;;;;;;;;;;;;;;;;;;;
2021/10/17 12:55:41;;;;;;;;;;;;;;;;;;;;;
2021/10/17 13:07:05;;;;;;;;;;;;;;;;;;;;;
2021/10/17 13:12:24;;;;;;;19.07;8.23;;;;;;;11.21;72.05;101012.10;5185424;56;1139017;-87
2021/10/17 13:17:27;;;;;;;15.43;6.50;;;;;;;11.33;72.90;101015.66;4966810;58;1140593;-87
2021/10/17 13:22:40;;;;;;;18.20;6.03;;;;;;;11.69;73.98;101028.02;4967379;58;1141054;-85
2021/10/17 13:27:58;;;;;;;8.43;4.53;;;;;;;11.85;71.61;101027.27;4948376;58;1140618;-87
2021/10/17 13:38:40;;;;;;;;;;;;;;;;;;;;;
2021/10/17 18:22:58;;;;;;;16.17;8.00;;;;;;;9.87;77.41;101065.52;4911115;59;1134980;-87
2021/10/17 18:28:09;;;;;;;16.60;8.70;;;;;;;9.81;77.86;101068.55;4814864;60;1139089;-84
2021/10/17 18:33:14;;;;;;;23.70;12.93;;;;;;;9.76;78.25;101071.98;4754265;60;1139169;-87
2021/10/17 18:38:21;;;;;;;202.87;78.10;;;;;;;9.73;78.49;101071.70;4753763;61;1141207;-87
2021/10/17 18:43:27;;;;;;;56.47;18.07;;;;;;;9.68;78.75;101071.63;4816487;59;1143392;-87
2021/10/17 18:48:33;;;;;;;77.13;23.00;;;;;;;9.66;79.13;101073.03;4845007;58;1141174;-87
2021/10/17 18:53:39;;;;;;;54.00;17.43;;;;;;;9.67;79.28;101077.37;4881588;59;1141436;-87
2021/10/17 18:58:45;;;;;;;109.57;33.33;;;;;;;9.70;79.55;101074.54;4940512;58;1141817;-87
2021/10/17 19:03:51;;;;;;;97.07;27.97;;;;;;;9.73;79.81;101086.23;5072065;57;1143766;-88
2021/10/17 19:08:57;;;;;;;22.93;8.17;;;;;;;9.70;80.06;101089.55;5037977;57;1141607;-85
2021/10/17 19:14:03;;;;;;;30.03;9.07;;;;;;;9.66;80.41;101094.64;5138943;57;1139502;-86
2021/10/17 19:19:09;;;;;;;40.65;14.38;;;;;;;9.60;80.87;101105.62;5084460;57;1139330;-85
2021/10/17 19:24:14;;;;;;;26.63;11.00;;;;;;;9.51;81.84;101109.67;5109486;57;1141228;-77
2021/10/17 19:29:22;;;;;;;18.73;6.60;;;;;;;9.42;83.52;101117.72;5045380;57;1141168;-82
2021/10/17 19:34:28;;;;;;;52.00;23.77;;;;;;;9.33;84.98;101109.05;5009028;57;1139241;-78
2021/10/17 19:39:33;;;;;;;13.03;8.03;;;;;;;9.31;86.04;101107.47;5152592;56;1141173;-80
2021/10/17 19:44:39;;;;;;;29.53;11.17;;;;;;;9.30;85.76;101113.69;5019065;58;1139061;-76
2021/10/17 19:49:44;;;;;;;40.93;14.07;;;;;;;9.29;86.36;101117.27;5164223;56;1141363;-82
2021/10/17 19:54:50;;;;;;;25.97;11.70;;;;;;;9.30;86.90;101116.33;5112002;57;1141033;-80
2021/10/17 19:59:56;;;;;;;13.33;6.33;;;;;;;9.32;87.52;101113.95;5164784;57;1141441;-80
2021/10/17 20:05:03;;;;;;;15.00;6.37;;;;;;;9.37;87.81;101111.03;5046532;57;1139243;-82
2021/10/17 20:10:12;;;;;;;22.97;8.27;;;;;;;9.37;88.63;101121.11;5185984;56;1139042;-77
2021/10/17 20:15:17;;;;;;;30.63;13.07;;;;;;;9.39;88.73;101124.51;5061431;57;1139062;-79
2021/10/17 20:20:23;;;;;;;23.73;10.40;;;;;;;9.39;88.99;101121.87;5197916;56;1141128;-76
2021/10/17 20:25:29;;;;;;;20.30;9.67;;;;;;;9.40;89.45;101127.53;5207784;56;1141411;-79
2021/10/17 20:30:36;;;;;;;21.83;8.23;;;;;;;9.40;89.82;101130.17;5071803;57;1139042;-83
2021/10/17 20:36:47;;;;;;;19.90;9.20;;;;;;;9.42;90.29;101133.56;5176849;56;1139092;-76
2021/10/17 20:41:00;;;;;;;20.87;6.83;;;;;;;9.39;90.83;101128.94;5069398;57;1136988;-85
2021/10/17 20:46:06;;;;;;;19.50;8.73;;;;;;;9.34;91.67;101128.37;5145236;56;1136939;-80
2021/10/17 20:51:12;;;;;;;8.05;4.78;;;;;;;9.31;91.93;101129.91;5187437;56;1136996;-80
2021/10/17 20:56:18;;;;;;;15.00;5.47;;;;;;;9.34;92.34;101128.37;5131170;56;1135158;-78
2021/10/17 21:01:25;;;;;;;14.17;6.13;;;;;;;9.35;92.86;101130.92;5186850;56;1136947;-78
2021/10/17 21:06:30;;;;;;;25.67;10.43;;;;;;;9.35;92.79;101130.92;5102860;57;1137336;-75
2021/10/17 21:11:36;;;;;;;27.93;19.43;;;;;;;9.38;93.07;101128.09;5062132;57;1139110;-79
2021/10/17 21:16:42;;;;;;;12.98;5.90;;;;;;;9.43;92.96;101126.02;5110109;56;1139029;-78
2021/10/17 21:21:48;;;;;;;32.90;13.17;;;;;;;9.49;92.98;101140.13;5095745;56;1137011;-81
2021/10/17 21:26:53;;;;;;;16.20;8.67;;;;;;;9.51;93.00;101142.21;5081075;57;1139185;-79
2021/10/17 21:31:59;;;;;;;14.47;6.53;;;;;;;9.57;93.13;101148.06;5138532;57;1136990;-81
2021/10/17 21:37:05;;;;;;;17.80;6.80;;;;;;;9.54;93.13;101147.77;5157895;56;1137214;-79
2021/10/17 21:42:11;;;;;;;19.07;5.67;;;;;;;9.56;93.28;101150.32;5162367;56;1136979;-77
2021/10/17 21:47:16;;;;;;;18.37;7.60;;;;;;;9.57;93.38;101160.79;5120370;56;1136996;-81
2021/10/17 21:52:22;;;;;;;13.83;5.17;;;;;;;9.56;93.25;101158.24;5105671;56;1136976;-80
2021/10/17 21:57:28;;;;;;;14.30;6.57;;;;;;;9.57;93.38;101156.83;5146306;56;1136991;-80
2021/10/17 22:02:33;;;;;;;11.37;6.13;;;;;;;9.56;93.67;101160.41;5108217;57;1137061;-81
2021/10/17 22:07:40;;;;;;;13.10;5.77;;;;;;;9.50;93.99;101161.64;5144493;56;1137021;-81
2021/10/17 22:12:46;;;;;;;8.80;5.27;;;;;;;9.47;94.27;101159.69;5165057;56;1135434;-78
2021/10/17 22:17:53;;;;;;;14.63;5.93;;;;;;;9.44;94.58;101151.48;5098141;57;1133114;-76
2021/10/17 22:22:59;;;;;;;12.43;6.60;;;;;;;9.44;94.67;101156.76;5165568;56;1139248;-79
2021/10/17 22:28:05;;;;;;;16.43;6.90;;;;;;;9.45;95.45;101165.06;5091183;56;1139285;-85
2021/10/17 22:33:11;;;;;;;12.20;6.87;;;;;;;9.43;95.02;101159.49;4996974;58;1139174;-82
2021/10/17 22:38:16;;;;;;;13.20;7.30;;;;;;;9.44;95.39;101166.47;4984459;58;1139498;-81
2021/10/17 22:43:22;;;;;;;15.93;8.23;;;;;;;9.46;95.30;101172.04;5005491;58;1139078;-79
2021/10/17 22:48:28;;;;;;;15.73;6.73;;;;;;;9.46;95.54;101179.11;5097296;57;1138950;-81
2021/10/17 22:53:33;;;;;;;13.23;6.93;;;;;;;9.46;95.49;101177.31;4979759;58;1139130;-78
2021/10/17 22:58:39;;;;;;;10.47;5.27;;;;;;;9.48;95.42;101189.92;5103332;57;1139138;-81
2021/10/17 23:03:45;;;;;;;14.80;7.03;;;;;;;9.50;95.61;101186.72;4984611;58;1139128;-81
2021/10/17 23:08:50;;;;;;;16.80;6.70;;;;;;;9.51;95.62;101192.38;5110368;57;1139028;-80
2021/10/17 23:13:56;;;;;;;17.87;7.43;;;;;;;9.55;95.46;101195.69;4988117;58;1139720;-79
2021/10/17 23:19:02;;;;;;;9.27;6.67;;;;;;;9.55;95.47;101193.05;4992119;58;1139352;-81
2021/10/17 23:24:08;;;;;;;10.53;4.07;;;;;;;9.56;95.59;101190.78;4988965;58;1137323;-79
2021/10/17 23:29:14;;;;;;;11.67;6.87;;;;;;;9.58;95.85;101199.94;5056975;57;1139470;-77
2021/10/17 23:34:20;;;;;;;14.87;6.07;;;;;;;9.56;95.82;101200.03;5062333;57;1139595;-81
2021/10/17 23:39:26;;;;;;;8.00;5.00;;;;;;;9.57;95.78;101199.08;5189752;56;1139089;-80
2021/10/17 23:44:32;;;;;;;9.30;4.50;;;;;;;9.58;95.85;101202.58;5073061;57;1137023;-77
2021/10/17 23:49:38;;;;;;;9.00;3.97;;;;;;;9.58;95.97;101198.14;5069735;57;1137043;-82
2021/10/17 23:54:44;;;;;;;7.00;4.50;;;;;;;9.58;96.25;101205.22;5097414;57;1137353;-81
2021/10/17 23:59:50;;;;;;;11.27;4.93;;;;;;;9.57;96.17;101208.33;5066991;57;1137248;-78
